Airfield :
LOGIN :

Register | Disclaimer

   EN    FR    IT 

 










Legend :    VFR   Marginal VFR   IFR   Intensive IFR   Very Intensive IFR
Visi :
Ceiling :
>= 8 km
>= 3000ft
5 to 8 km
1000 to 3000 ft
1500m to 5 km
500 to 1000 ft
800 to 1500m
200 to 500 ft
< 800m
< 200 ft
Symbols :   Thunderstorms  Fog  Heavy snow  Heavy precipitations  Wind > 20 kt
SIGMETs :     Misc.  Thunderstorms  Icing  Turbulence  Mountain Waves  Volcanic Ashes







- Airport Elevation : 412 ft
- IATA code : ORE
- Download approach charts


LFOJ - Orleans

CURRENT METAR :
  • 190030Z AUTO 18005KT CAVOK 20/15 Q1007

EXPIRED METARs :
  • 190000Z AUTO 18006KT CAVOK 21/15 Q1007
  • 182330Z AUTO 15007KT CAVOK 21/15 Q1007
  • 182300Z AUTO 15007KT CAVOK 21/15 Q1007
  • 182230Z AUTO 14006KT CAVOK 20/16 Q1007
  • 182200Z AUTO 13006KT CAVOK 20/16 Q1007 NOSIG

TAF TAF LFOJ
Valid from the 18 at 21:00 until the 19 at 21:00 UTC


182000Z 1821/1921 12006KT CAVOK
BECMG 1900/1901 22020G35KT
TEMPO 1901/1905 4000 -SHRA BKN060CB
PROB40
TEMPO 1901/1904 22025G45KT 2000 TSRAGR BKN060CB
BECMG 1905/1907 24015G25KT
TEMPO 1912/1915 4000 SHRA BKN040TCU
PROB30
TEMPO 1915/1921 23020G35KT 3000 TSRA BKN035CB
No reported NOTAMs for that airfield.
2 SIGMETs reported for the Paris FIR (LFFF) :
 
Frequent thunderstorms and hail
LFFF SIGMET 3 VALID 182300/190100 LFPW
LFFF PARIS FIR/UIR FRQ TSGR OBS AT 2245Z N OF N4900 AND W OF E00145 TOP FL330 MOV NE 25KT NC=
Frequent thunderstorms and hail
LFFF SIGMET 1 VALID 190100/190300 LFPW
LFFF PARIS FIR/UIR FRQ TSGR FCST WI N5000 W00015 - N5115 E00200 - N5100 E00215 - N5045 E00230 - N4915 E00030 - N5000 W00015 TOP FL330 MOV NE 25KT NC=



MET'MAP, your aeronautical weather chart ! - Copyright ORBIFLY December 2007 - Disclaimer

ORBIFLY MET'MAP TEAM :

Programming & Development : Alexandra Zaïnal
Concept & Development : Baudouin d'Aumeries
Co-Development & Prog : Marc-Olivier Méhu
Technical & hardware support : Manuel Goepfert

Contact : metmap@orbifly.com




SOURCES & CREDITS :

   NOAA